Terminal Aerodrome Forecast
Issued by NWS Upton, NY

Home | Current Version | Previous Version | Text Only | Print | Product List | Glossary On
Versions: 1 2 3 4 5 6 7 8 9 10 11 12 13 14 15 16 17 18 19 20 21 22 23 24 25 26 27 28 29 30 31 32 33 34 35 36 37 38
000
FTUS41 KOKX 292327
TAFJFK
TAF
KJFK 292327Z 3000/3106 18008KT P6SM SCT040 BKN150
     FM300200 VRB04KT P6SM FEW040 SCT150
     FM301200 05007KT P6SM BKN050 BKN150
     FM301400 12007KT P6SM BKN050 BKN120
     FM301700 16007KT P6SM BKN050 BKN120
     FM310000 13006KT P6SM SCT020 BKN050 BKN120 PROB30 3100/3106 6SM
      -SHRA=

USA.gov is the U.S. government's official web portal to all federal, state and local government web resources and services.